Time;durP1;ratioP1;P1;durP2;ratioP2;P2;SDS_P1;SDS_P2;PMS_P1;PMS_P2;Temp;Humidity;BMP_temperature;BMP_pressure;BME280_temperature;BME280_humidity;BME280_pressure;Samples;Min_cycle;Max_cycle;Signal;HPM_P1;HPM_P2
2021/09/18 00:01:20;;;;;;;16.85;14.35;;;17.00;99.90;;;;;;4994383;28;20568;-82
2021/09/18 00:03:46;;;;;;;21.40;14.65;;;16.90;99.90;;;;;;4996346;28;20205;-83
2021/09/18 00:06:12;;;;;;;19.92;14.05;;;16.90;99.90;;;;;;4994930;28;20541;-83
2021/09/18 00:08:38;;;;;;;21.48;15.23;;;16.90;99.90;;;;;;4994553;28;20188;-83
2021/09/18 00:11:04;;;;;;;21.48;16.10;;;16.90;99.90;;;;;;4994262;28;20288;-85
2021/09/18 00:13:31;;;;;;;23.60;16.23;;;16.80;99.90;;;;;;4995906;28;20296;-87
2021/09/18 00:15:58;;;;;;;22.83;16.77;;;16.90;99.90;;;;;;4994646;28;20328;-84
2021/09/18 00:18:23;;;;;;;21.92;16.55;;;17.00;99.90;;;;;;4996135;28;20251;-84
2021/09/18 00:20:49;;;;;;;21.67;15.10;;;17.00;99.90;;;;;;4994477;28;20320;-83
2021/09/18 00:23:15;;;;;;;24.55;16.88;;;17.00;99.90;;;;;;4996205;28;20223;-83
2021/09/18 00:25:40;;;;;;;25.45;17.30;;;17.10;99.90;;;;;;4995587;28;20205;-82
2021/09/18 00:28:06;;;;;;;23.08;16.67;;;17.10;99.90;;;;;;4994463;28;20176;-83
2021/09/18 00:30:32;;;;;;;21.17;16.58;;;17.00;99.90;;;;;;4994783;28;20184;-83
2021/09/18 00:32:57;;;;;;;26.42;17.17;;;16.90;99.90;;;;;;4994247;28;20205;-82
2021/09/18 00:35:23;;;;;;;20.73;16.23;;;16.80;99.90;;;;;;5001539;28;20245;-83
2021/09/18 00:37:49;;;;;;;22.85;17.30;;;16.90;99.90;;;;;;5005158;28;20172;-84
2021/09/18 00:40:15;;;;;;;25.55;17.58;;;16.90;99.90;;;;;;5001874;28;20633;-83
2021/09/18 00:42:41;;;;;;;21.98;16.15;;;16.80;99.90;;;;;;5006523;28;20212;-83
2021/09/18 00:45:07;;;;;;;26.30;17.17;;;16.80;99.90;;;;;;5003656;28;20209;-85
2021/09/18 00:47:33;;;;;;;22.73;16.23;;;16.90;99.90;;;;;;4994508;28;20267;-84
2021/09/18 00:49:58;;;;;;;26.02;16.67;;;17.00;99.90;;;;;;4994168;28;20674;-83
2021/09/18 00:52:24;;;;;;;24.10;16.50;;;17.00;99.90;;;;;;4996013;28;20711;-85
2021/09/18 00:54:50;;;;;;;28.65;17.80;;;16.90;99.90;;;;;;4994167;28;20192;-84
2021/09/18 00:57:17;;;;;;;23.88;16.60;;;16.90;99.90;;;;;;4995493;28;20184;-87
2021/09/18 00:59:43;;;;;;;21.08;16.52;;;16.70;99.90;;;;;;4994274;28;20170;-84
2021/09/18 01:02:10;;;;;;;24.73;17.13;;;16.70;99.90;;;;;;4993702;28;20200;-86
2021/09/18 01:04:37;;;;;;;28.55;18.30;;;16.70;99.90;;;;;;4993438;28;20184;-84
2021/09/18 01:07:11;;;;;;;22.70;17.48;;;16.60;99.90;;;;;;4995344;28;20181;-89
2021/09/18 01:09:36;;;;;;;30.83;18.20;;;16.70;99.90;;;;;;4993903;28;20173;-89
2021/09/18 01:12:05;;;;;;;27.42;17.35;;;16.70;99.90;;;;;;4994809;28;20267;-87
2021/09/18 01:14:31;;;;;;;29.75;18.30;;;16.70;99.90;;;;;;4996430;28;20176;-86
2021/09/18 01:16:57;;;;;;;26.55;18.88;;;16.70;99.90;;;;;;4995864;28;20173;-89
2021/09/18 01:19:22;;;;;;;23.65;18.30;;;16.80;99.90;;;;;;4995566;28;20188;-86
2021/09/18 01:21:49;;;;;;;31.95;18.05;;;16.60;99.90;;;;;;4994090;28;20181;-87
2021/09/18 01:24:16;;;;;;;35.13;17.90;;;16.60;99.90;;;;;;4995051;28;20176;-86
2021/09/18 01:26:41;;;;;;;23.23;18.63;;;16.70;99.90;;;;;;4993725;28;20180;-83
2021/09/18 01:29:08;;;;;;;26.38;18.42;;;16.60;99.90;;;;;;4994565;28;20173;-84
2021/09/18 01:31:42;;;;;;;29.70;18.77;;;16.60;99.90;;;;;;4994174;28;20566;-86
2021/09/18 01:34:08;;;;;;;27.65;19.45;;;16.70;99.90;;;;;;4993479;28;20192;-88
2021/09/18 01:36:35;;;;;;;28.05;19.25;;;16.80;99.90;;;;;;4993636;28;20173;-85
2021/09/18 01:39:01;;;;;;;32.83;18.13;;;16.60;99.90;;;;;;4993163;28;20201;-85
2021/09/18 01:41:33;;;;;;;31.10;18.77;;;16.50;99.90;;;;;;4992925;28;20201;-89
2021/09/18 01:43:59;;;;;;;24.08;16.95;;;16.60;99.90;;;;;;4993040;28;20197;-85
2021/09/18 01:46:25;;;;;;;27.42;19.13;;;16.50;99.90;;;;;;4992692;28;20253;-87
2021/09/18 01:48:52;;;;;;;32.28;19.83;;;16.50;99.90;;;;;;4992817;28;20169;-85
2021/09/18 01:51:17;;;;;;;26.85;18.80;;;16.40;99.90;;;;;;4992825;28;20185;-85
2021/09/18 01:53:44;;;;;;;26.63;18.45;;;16.40;99.90;;;;;;4992376;28;20271;-83
2021/09/18 01:56:10;;;;;;;27.83;19.25;;;16.40;99.90;;;;;;4993818;28;20176;-84
2021/09/18 01:58:35;;;;;;;30.58;17.83;;;16.30;99.90;;;;;;4993406;28;20173;-84
2021/09/18 02:01:03;;;;;;;28.35;19.63;;;16.20;99.90;;;;;;4992546;28;20185;-87
2021/09/18 02:03:33;;;;;;;34.47;19.45;;;16.20;99.90;;;;;;4992995;28;20181;-84
2021/09/18 02:05:58;;;;;;;28.83;18.80;;;16.10;99.90;;;;;;4992571;28;20235;-83
2021/09/18 02:08:25;;;;;;;31.60;21.40;;;16.20;99.90;;;;;;4992905;28;20161;-88
2021/09/18 02:10:52;;;;;;;30.48;19.63;;;16.30;99.90;;;;;;4992676;28;20191;-84
2021/09/18 02:13:18;;;;;;;34.90;19.48;;;16.20;99.90;;;;;;4992683;28;20220;-85
2021/09/18 02:15:45;;;;;;;36.70;22.10;;;16.20;99.90;;;;;;4993848;28;20170;-83
2021/09/18 02:18:10;;;;;;;35.10;21.48;;;16.20;99.90;;;;;;4992403;28;20173;-86
2021/09/18 02:20:37;;;;;;;31.30;21.67;;;16.20;99.90;;;;;;4994130;28;20188;-84
2021/09/18 02:23:04;;;;;;;33.20;20.77;;;16.10;99.90;;;;;;4992923;28;20177;-83
2021/09/18 02:25:30;;;;;;;29.33;19.80;;;16.20;99.90;;;;;;4992822;28;20507;-84
2021/09/18 02:27:56;;;;;;;30.08;19.95;;;16.20;99.90;;;;;;4992694;28;20220;-88
2021/09/18 02:30:27;;;;;;;38.05;21.38;;;16.20;99.90;;;;;;4992397;28;20220;-85
2021/09/18 02:32:54;;;;;;;33.33;20.50;;;16.20;99.90;;;;;;4993656;28;20212;-83
2021/09/18 02:35:22;;;;;;;33.28;21.42;;;16.30;99.90;;;;;;4992312;28;20215;-83
2021/09/18 02:37:49;;;;;;;32.90;21.05;;;16.10;99.90;;;;;;4992293;28;20200;-85
2021/09/18 02:40:16;;;;;;;28.90;20.67;;;16.10;99.90;;;;;;4996222;28;20247;-82
2021/09/18 02:42:46;;;;;;;38.92;21.35;;;16.00;99.90;;;;;;4992229;28;20196;-82
2021/09/18 02:45:12;;;;;;;38.83;20.05;;;16.00;99.90;;;;;;4993298;28;20244;-82
2021/09/18 02:47:38;;;;;;;36.92;20.75;;;16.10;99.90;;;;;;4994258;28;20244;-82
2021/09/18 02:50:06;;;;;;;31.02;20.25;;;16.00;99.90;;;;;;4993710;28;20644;-81
2021/09/18 02:52:32;;;;;;;31.63;20.02;;;16.10;99.90;;;;;;4992030;28;20205;-83
2021/09/18 02:54:58;;;;;;;31.70;20.45;;;16.10;99.90;;;;;;4991698;28;20313;-81
2021/09/18 02:57:24;;;;;;;29.42;20.90;;;16.10;99.90;;;;;;4993445;28;20260;-82
2021/09/18 02:59:49;;;;;;;33.58;20.10;;;16.10;99.90;;;;;;4995676;28;20649;-82
2021/09/18 03:02:15;;;;;;;31.83;19.52;;;16.00;99.90;;;;;;4995902;28;20181;-82
2021/09/18 03:04:41;;;;;;;30.27;19.58;;;16.00;99.90;;;;;;5012373;23;20150;-80
2021/09/18 03:07:07;;;;;;;31.52;21.63;;;16.10;99.90;;;;;;5035929;28;20255;-80
2021/09/18 03:09:33;;;;;;;26.27;18.77;;;16.10;99.90;;;;;;5034576;28;20164;-80
2021/09/18 03:11:59;;;;;;;30.85;20.38;;;16.20;99.90;;;;;;5018064;28;20262;-80
2021/09/18 03:14:24;;;;;;;31.08;19.40;;;16.20;99.90;;;;;;5016065;28;20179;-81
2021/09/18 03:16:50;;;;;;;31.23;20.90;;;16.10;99.90;;;;;;5015902;28;20169;-81
2021/09/18 03:19:16;;;;;;;32.42;20.45;;;16.10;99.90;;;;;;5015565;28;20700;-80
2021/09/18 03:21:41;;;;;;;30.00;20.17;;;16.00;99.90;;;;;;5015914;28;20223;-80
2021/09/18 03:24:08;;;;;;;28.27;19.38;;;15.90;99.90;;;;;;5014641;28;20168;-81
2021/09/18 03:26:34;;;;;;;32.17;21.33;;;15.90;99.90;;;;;;5015988;28;20160;-81
2021/09/18 03:28:59;;;;;;;36.65;22.15;;;15.90;99.90;;;;;;5015821;28;20260;-80
2021/09/18 03:31:25;;;;;;;34.30;23.00;;;16.00;99.90;;;;;;5015695;28;20706;-80
2021/09/18 03:33:50;;;;;;;36.78;21.52;;;15.90;99.90;;;;;;5015909;28;20176;-80
2021/09/18 03:36:16;;;;;;;33.10;21.33;;;15.90;99.90;;;;;;5014450;28;20196;-81
2021/09/18 03:38:42;;;;;;;41.22;21.30;;;16.00;99.90;;;;;;5015983;28;20184;-91
2021/09/18 03:41:08;;;;;;;37.25;21.05;;;16.00;99.90;;;;;;5014087;28;20184;-83
2021/09/18 03:43:33;;;;;;;30.15;19.70;;;15.90;99.90;;;;;;5013826;28;20172;-81
2021/09/18 03:45:59;;;;;;;36.50;20.30;;;16.00;99.90;;;;;;5014034;28;20218;-81
2021/09/18 03:48:24;;;;;;;32.08;21.70;;;15.90;99.90;;;;;;5015180;28;20659;-80
2021/09/18 03:50:50;;;;;;;30.67;20.73;;;16.00;99.90;;;;;;5014178;28;20185;-81
2021/09/18 03:53:16;;;;;;;37.17;20.88;;;16.00;99.90;;;;;;5015454;28;20204;-82
2021/09/18 03:55:41;;;;;;;34.70;21.33;;;16.00;99.90;;;;;;5015134;28;20525;-80
2021/09/18 03:58:07;;;;;;;29.45;19.63;;;15.90;99.90;;;;;;5015142;28;20172;-81
2021/09/18 04:00:33;;;;;;;28.17;20.70;;;15.90;99.90;;;;;;5013992;28;20247;-81
2021/09/18 04:02:59;;;;;;;31.77;19.65;;;15.90;99.90;;;;;;5014285;28;20180;-81
2021/09/18 04:05:24;;;;;;;33.47;21.05;;;15.80;99.90;;;;;;5015481;28;20192;-81
2021/09/18 04:07:50;;;;;;;35.50;20.92;;;15.90;99.90;;;;;;5013764;28;20176;-81
2021/09/18 04:10:16;;;;;;;29.77;20.45;;;15.90;99.90;;;;;;5014045;28;20523;-81
2021/09/18 04:12:41;;;;;;;36.47;21.05;;;15.90;99.90;;;;;;5014691;28;20759;-81
2021/09/18 04:15:08;;;;;;;28.25;19.98;;;15.90;99.90;;;;;;5013351;28;20530;-81
2021/09/18 04:17:34;;;;;;;33.00;21.73;;;15.90;99.90;;;;;;5014975;28;20175;-81
2021/09/18 04:19:59;;;;;;;27.77;20.95;;;15.80;99.90;;;;;;5013349;28;20165;-80
2021/09/18 04:22:25;;;;;;;34.60;22.10;;;15.70;99.90;;;;;;5014205;28;20165;-81
2021/09/18 04:24:51;;;;;;;35.38;22.25;;;15.80;99.90;;;;;;5014174;28;20176;-81
2021/09/18 04:27:17;;;;;;;36.80;20.55;;;15.80;99.90;;;;;;5012910;28;20176;-81
2021/09/18 04:29:42;;;;;;;33.58;20.83;;;15.70;99.90;;;;;;5014484;28;20180;-81
2021/09/18 04:32:08;;;;;;;41.53;22.90;;;15.70;99.90;;;;;;5013078;28;20212;-80
2021/09/18 04:34:34;;;;;;;35.13;22.35;;;15.80;99.90;;;;;;5014435;28;20219;-81
2021/09/18 04:37:00;;;;;;;36.92;22.23;;;15.80;99.90;;;;;;5012866;28;20172;-81
2021/09/18 04:39:25;;;;;;;41.58;21.08;;;15.70;99.90;;;;;;5013115;28;20160;-81
2021/09/18 04:41:51;;;;;;;38.10;22.65;;;15.70;99.90;;;;;;5013989;28;20188;-81
2021/09/18 04:44:17;;;;;;;33.05;21.90;;;15.70;99.90;;;;;;5014228;28;20172;-81
2021/09/18 04:46:42;;;;;;;37.65;21.42;;;15.70;99.90;;;;;;5014072;28;20175;-81
2021/09/18 04:49:10;;;;;;;35.50;21.88;;;15.70;99.90;;;;;;5014324;28;20633;-81
2021/09/18 04:51:36;;;;;;;43.22;22.55;;;15.70;99.90;;;;;;5012976;28;20726;-82
2021/09/18 04:54:02;;;;;;;34.20;22.13;;;15.70;99.90;;;;;;5014170;28;20196;-81
2021/09/18 04:56:28;;;;;;;37.95;21.10;;;15.70;99.90;;;;;;5014616;28;20178;-82
2021/09/18 04:58:53;;;;;;;29.60;21.52;;;15.60;99.90;;;;;;5012572;28;20251;-82
2021/09/18 05:01:19;;;;;;;35.08;21.55;;;15.60;99.90;;;;;;5013929;28;20180;-81
2021/09/18 05:03:45;;;;;;;39.47;22.30;;;15.50;99.90;;;;;;5012750;28;20583;-80
2021/09/18 05:06:10;;;;;;;34.50;23.38;;;15.50;99.90;;;;;;5013733;28;20652;-80
2021/09/18 05:08:36;;;;;;;30.48;21.20;;;15.50;99.90;;;;;;5013698;28;20165;-81
2021/09/18 05:11:02;;;;;;;37.25;22.52;;;15.60;99.90;;;;;;5013426;28;20203;-81
2021/09/18 05:13:27;;;;;;;37.92;23.02;;;15.60;99.90;;;;;;5012612;28;20235;-81
2021/09/18 05:15:53;;;;;;;37.53;24.48;;;15.70;99.90;;;;;;5013771;28;20187;-81
2021/09/18 05:18:19;;;;;;;40.78;23.40;;;15.70;99.90;;;;;;5013693;28;20252;-81
2021/09/18 05:20:44;;;;;;;40.83;24.50;;;15.60;99.90;;;;;;5013054;28;20667;-81
2021/09/18 05:23:10;;;;;;;37.65;22.83;;;15.70;99.90;;;;;;5013127;28;20191;-81
2021/09/18 05:25:36;;;;;;;42.33;23.38;;;15.70;99.90;;;;;;5013508;28;20198;-81
2021/09/18 05:28:01;;;;;;;39.13;22.75;;;15.70;99.90;;;;;;5013649;28;21002;-80
2021/09/18 05:30:27;;;;;;;36.53;23.23;;;15.60;99.90;;;;;;5011673;28;20207;-81
2021/09/18 05:32:53;;;;;;;37.50;23.95;;;15.60;99.90;;;;;;5012976;28;20537;-81
2021/09/18 05:35:18;;;;;;;38.55;23.00;;;15.70;99.90;;;;;;5011929;28;20168;-80
2021/09/18 05:37:44;;;;;;;40.42;23.17;;;15.60;99.90;;;;;;5011880;28;20168;-81
2021/09/18 05:40:10;;;;;;;40.35;23.77;;;15.70;99.90;;;;;;5013115;28;20680;-81
2021/09/18 05:42:37;;;;;;;43.15;24.55;;;15.80;99.90;;;;;;5013159;28;20168;-81
2021/09/18 05:45:04;;;;;;;50.13;24.10;;;15.80;99.90;;;;;;5013266;28;20644;-81
2021/09/18 05:47:30;;;;;;;46.80;24.55;;;15.70;99.90;;;;;;5013044;28;20279;-82
2021/09/18 05:49:56;;;;;;;49.20;26.70;;;15.80;99.90;;;;;;5013010;28;20188;-81
2021/09/18 05:52:22;;;;;;;37.67;23.48;;;15.80;99.90;;;;;;5012874;28;20310;-81
2021/09/18 05:54:47;;;;;;;38.42;22.98;;;15.80;99.90;;;;;;5012889;28;20160;-82
2021/09/18 05:57:13;;;;;;;39.65;22.17;;;15.80;99.90;;;;;;5011621;28;20728;-81
2021/09/18 05:59:39;;;;;;;37.20;21.70;;;15.90;99.90;;;;;;5011892;28;20263;-80
2021/09/18 06:02:04;;;;;;;36.42;22.40;;;16.00;99.90;;;;;;5011676;28;20192;-88
2021/09/18 06:04:30;;;;;;;36.60;21.75;;;16.00;99.90;;;;;;5012102;28;20176;-81
2021/09/18 06:06:56;;;;;;;33.60;22.40;;;16.00;99.90;;;;;;5012709;28;20172;-80
2021/09/18 06:09:21;;;;;;;38.65;22.48;;;16.00;99.90;;;;;;5012552;28;20176;-81
2021/09/18 06:11:47;;;;;;;37.03;22.02;;;16.00;99.90;;;;;;5011406;28;20202;-81
2021/09/18 06:14:13;;;;;;;34.92;20.02;;;16.00;99.90;;;;;;5012940;28;20196;-80
2021/09/18 06:16:38;;;;;;;37.28;21.98;;;16.00;99.90;;;;;;5012313;28;20244;-81
2021/09/18 06:19:04;;;;;;;34.03;20.73;;;16.20;99.90;;;;;;5012784;28;20172;-82
2021/09/18 06:21:30;;;;;;;38.05;21.88;;;16.20;99.90;;;;;;5011526;28;20626;-81
2021/09/18 06:23:55;;;;;;;29.88;20.60;;;16.30;99.90;;;;;;5011092;28;20168;-82
2021/09/18 06:26:21;;;;;;;34.85;21.92;;;16.40;99.90;;;;;;5012704;28;20175;-81
2021/09/18 06:28:47;;;;;;;36.33;22.70;;;16.40;99.90;;;;;;5012363;28;20279;-83
2021/09/18 06:31:12;;;;;;;40.05;23.50;;;16.60;99.90;;;;;;5012431;28;20188;-82
2021/09/18 06:33:38;;;;;;;37.53;22.13;;;16.70;99.90;;;;;;5012100;28;20695;-81
2021/09/18 06:36:04;;;;;;;36.22;21.65;;;16.80;99.90;;;;;;5012275;28;20169;-81
2021/09/18 06:38:30;;;;;;;39.55;21.88;;;16.70;99.90;;;;;;5012268;28;20280;-82
2021/09/18 06:40:56;;;;;;;35.20;21.88;;;16.80;99.90;;;;;;5011112;28;20272;-82
2021/09/18 06:43:23;;;;;;;31.92;21.48;;;16.90;99.90;;;;;;5013846;28;20250;-80
2021/09/18 06:45:50;;;;;;;40.70;22.40;;;17.00;99.90;;;;;;5012961;28;20180;-82
2021/09/18 06:48:16;;;;;;;37.17;22.42;;;17.00;99.90;;;;;;5012317;28;20251;-81
2021/09/18 06:50:42;;;;;;;38.70;21.77;;;17.10;99.90;;;;;;5011212;28;20198;-80
2021/09/18 06:53:08;;;;;;;36.67;23.48;;;17.20;99.90;;;;;;5012492;28;20668;-81
2021/09/18 06:55:35;;;;;;;45.60;21.95;;;17.20;99.90;;;;;;5010910;28;20160;-81
2021/09/18 06:58:01;;;;;;;31.88;22.17;;;17.30;99.90;;;;;;5011888;28;20263;-81
2021/09/18 07:00:28;;;;;;;35.88;22.08;;;17.40;99.90;;;;;;5010720;28;20682;-82
2021/09/18 07:02:53;;;;;;;31.52;21.45;;;17.50;99.90;;;;;;5011190;28;20279;-79
2021/09/18 07:05:19;;;;;;;33.95;22.58;;;17.50;99.90;;;;;;5011787;28;20264;-81
2021/09/18 07:07:45;;;;;;;33.50;22.55;;;17.50;99.90;;;;;;5012022;28;20176;-81
2021/09/18 07:10:12;;;;;;;32.90;22.50;;;17.60;99.90;;;;;;5010457;28;20192;-81
2021/09/18 07:12:38;;;;;;;34.58;21.27;;;17.80;99.90;;;;;;5012033;28;20262;-82
2021/09/18 07:15:05;;;;;;;28.05;20.45;;;17.90;99.90;;;;;;5010752;28;20209;-82
2021/09/18 07:17:30;;;;;;;27.90;20.83;;;18.00;99.90;;;;;;5011531;28;20181;-85
2021/09/18 07:19:58;;;;;;;30.10;20.95;;;18.10;99.90;;;;;;5011674;28;20160;-81
2021/09/18 07:22:27;;;;;;;25.85;19.38;;;18.20;99.90;;;;;;5011755;28;20172;-81
2021/09/18 07:24:53;;;;;;;31.98;20.92;;;18.30;99.90;;;;;;5011574;28;20176;-79
2021/09/18 07:27:19;;;;;;;30.02;20.00;;;18.30;99.90;;;;;;5011139;28;20176;-82
2021/09/18 07:29:45;;;;;;;25.45;19.17;;;18.40;99.90;;;;;;5009991;28;20195;-86
2021/09/18 07:32:11;;;;;;;28.67;18.83;;;18.30;99.90;;;;;;5012007;28;20211;-78
2021/09/18 07:34:37;;;;;;;26.40;19.27;;;18.30;99.90;;;;;;5011851;28;20172;-78
2021/09/18 07:37:03;;;;;;;29.15;19.38;;;18.40;99.90;;;;;;5011964;28;20551;-79
2021/09/18 07:39:29;;;;;;;24.55;17.67;;;18.60;99.90;;;;;;5011773;28;20528;-78
2021/09/18 07:41:55;;;;;;;22.55;18.15;;;18.70;99.90;;;;;;5011769;28;20191;-81
2021/09/18 07:44:21;;;;;;;28.48;18.55;;;18.60;99.90;;;;;;5010217;28;20179;-81
2021/09/18 07:46:47;;;;;;;28.40;19.42;;;18.70;99.90;;;;;;5014916;28;20172;-81
2021/09/18 07:49:12;;;;;;;31.00;17.80;;;18.80;99.90;;;;;;5015395;28;20632;-79
2021/09/18 07:51:38;;;;;;;20.15;17.38;;;18.90;99.90;;;;;;5013779;28;20654;-78
2021/09/18 07:54:04;;;;;;;21.65;17.35;;;19.10;99.90;;;;;;5015071;28;20531;-79
2021/09/18 07:56:29;;;;;;;22.40;16.48;;;19.30;99.90;;;;;;5015302;28;20282;-79
2021/09/18 07:58:57;;;;;;;26.58;17.13;;;19.50;99.90;;;;;;5015259;28;20164;-79
2021/09/18 08:01:24;;;;;;;23.98;16.88;;;19.70;99.90;;;;;;5014924;28;20195;-78
2021/09/18 08:03:51;;;;;;;22.15;16.77;;;19.80;99.90;;;;;;5013613;28;20200;-78
2021/09/18 08:06:17;;;;;;;19.02;16.02;;;20.00;99.90;;;;;;5014976;28;20206;-78
2021/09/18 08:08:42;;;;;;;24.02;14.15;;;20.10;99.90;;;;;;5015098;28;20608;-79
2021/09/18 08:11:08;;;;;;;15.43;13.35;;;20.30;99.90;;;;;;5014719;28;20200;-79
2021/09/18 08:13:34;;;;;;;17.35;12.70;;;20.40;99.90;;;;;;5013569;28;20236;-78
2021/09/18 08:15:59;;;;;;;18.33;13.27;;;20.50;99.90;;;;;;5014854;28;20223;-78
2021/09/18 08:18:25;;;;;;;16.75;12.93;;;20.60;99.90;;;;;;5014827;28;20204;-78
2021/09/18 08:20:50;;;;;;;13.82;12.50;;;20.50;99.90;;;;;;5014686;28;20185;-78
2021/09/18 08:23:16;;;;;;;14.38;12.90;;;20.60;99.90;;;;;;5014224;28;20695;-79
2021/09/18 08:25:42;;;;;;;13.35;12.02;;;20.70;99.90;;;;;;5014464;28;20164;-79
2021/09/18 08:28:07;;;;;;;18.65;11.85;;;20.70;99.90;;;;;;5014731;28;20172;-78
2021/09/18 08:30:35;;;;;;;12.75;11.30;;;20.80;99.90;;;;;;5013355;28;20215;-78
2021/09/18 08:33:01;;;;;;;12.63;11.43;;;21.00;99.90;;;;;;5014385;28;20274;-78
2021/09/18 08:35:27;;;;;;;12.40;11.10;;;21.00;99.90;;;;;;5014496;28;20168;-78
2021/09/18 08:37:52;;;;;;;12.80;10.70;;;20.80;99.90;;;;;;5014529;28;20538;-79
2021/09/18 08:40:18;;;;;;;13.70;12.00;;;20.80;99.90;;;;;;5014364;28;20185;-78
2021/09/18 08:42:43;;;;;;;21.08;11.40;;;21.00;99.90;;;;;;5014057;28;20204;-79
2021/09/18 08:45:13;;;;;;;13.05;11.05;;;21.10;99.90;;;;;;5013992;28;20160;-79
2021/09/18 08:47:41;;;;;;;11.70;10.40;;;21.20;99.90;;;;;;4996800;28;20643;-78
2021/09/18 08:50:12;;;;;;;18.65;9.77;;;21.20;99.90;;;;;;5014115;28;20187;-79
2021/09/18 08:52:37;;;;;;;10.85;9.80;;;21.20;99.90;;;;;;5014250;28;20227;-78
2021/09/18 08:55:03;;;;;;;9.93;8.68;;;21.30;99.90;;;;;;5014162;28;20632;-79
2021/09/18 08:57:29;;;;;;;9.00;8.20;;;21.40;99.90;;;;;;5014085;28;20624;-78
2021/09/18 08:59:54;;;;;;;12.73;9.10;;;21.60;99.90;;;;;;5013573;28;20169;-80
2021/09/18 09:02:30;;;;;;;14.90;9.07;;;21.70;99.90;;;;;;5013248;28;20169;-78
2021/09/18 09:05:07;;;;;;;12.55;7.13;;;21.70;99.90;;;;;;5025254;23;20216;-84
2021/09/18 09:07:33;;;;;;;10.02;9.00;;;21.50;99.90;;;;;;4993825;28;20188;-83
2021/09/18 09:10:04;;;;;;;9.52;8.52;;;21.50;99.90;;;;;;4993767;28;20169;-83
2021/09/18 09:12:38;;;;;;;9.93;8.50;;;21.60;99.90;;;;;;4994546;28;20208;-83
2021/09/18 09:15:20;;;;;;;10.48;8.88;;;21.80;99.90;;;;;;4995677;28;20176;-83
2021/09/18 09:17:52;;;;;;;13.73;10.05;;;21.70;99.90;;;;;;4994719;28;20169;-82
2021/09/18 09:20:27;;;;;;;11.80;8.48;;;21.60;99.90;;;;;;4993404;28;20185;-83
2021/09/18 09:22:54;;;;;;;15.85;9.48;;;21.80;99.90;;;;;;4994468;28;20180;-84
2021/09/18 09:25:34;;;;;;;10.88;9.77;;;21.80;99.90;;;;;;4993976;28;20518;-83
2021/09/18 09:28:34;;;;;;;13.70;8.95;;;22.00;99.90;;;;;;4993368;28;20169;-84
2021/09/18 09:31:23;;;;;;;11.02;7.80;;;22.30;99.90;;;;;;4993428;28;20608;-84
2021/09/18 09:34:12;;;;;;;7.53;6.68;;;22.30;99.90;;;;;;4993023;28;20749;-84
2021/09/18 09:36:51;;;;;;;8.20;7.25;;;22.40;99.90;;;;;;4993746;28;20511;-85
2021/09/18 09:39:22;;;;;;;14.35;7.50;;;22.60;99.90;;;;;;4993768;28;20276;-86
2021/09/18 09:41:53;;;;;;;8.20;7.43;;;22.60;99.90;;;;;;4993437;28;20216;-88
2021/09/18 09:44:22;;;;;;;8.65;6.15;;;22.40;99.90;;;;;;4994170;28;20183;-87
2021/09/18 09:47:11;;;;;;;7.78;7.05;;;22.50;99.90;;;;;;4995020;28;20215;-87
2021/09/18 09:49:45;;;;;;;6.30;5.80;;;22.60;99.90;;;;;;4995073;28;20184;-87
2021/09/18 09:52:17;;;;;;;7.18;6.05;;;22.60;99.90;;;;;;4994367;28;20370;-88
2021/09/18 09:54:43;;;;;;;7.85;7.10;;;22.60;99.90;;;;;;4994240;28;20236;-88
2021/09/18 09:57:14;;;;;;;6.07;5.50;;;22.70;99.90;;;;;;4994623;28;20166;-88
2021/09/18 09:59:41;;;;;;;6.05;5.55;;;22.60;99.90;;;;;;4995639;28;20177;-88
2021/09/18 10:02:14;;;;;;;9.07;6.07;;;22.70;99.90;;;;;;4995806;28;20189;-87
2021/09/18 10:04:40;;;;;;;10.75;5.55;;;22.80;99.90;;;;;;5002668;28;20177;-88
2021/09/18 10:07:08;;;;;;;10.50;6.32;;;22.90;99.90;;;;;;5000282;28;20653;-88
2021/09/18 10:09:35;;;;;;;6.40;5.80;;;22.70;99.90;;;;;;4997538;28;20248;-87
2021/09/18 10:12:01;;;;;;;7.63;5.78;;;22.60;99.90;;;;;;4999394;28;20197;-88
2021/09/18 10:14:28;;;;;;;6.95;6.20;;;22.60;99.90;;;;;;4994029;28;20169;-88
2021/09/18 10:16:57;;;;;;;7.68;6.28;;;22.60;99.90;;;;;;4993620;28;20165;-87
2021/09/18 10:19:54;;;;;;;12.13;6.18;;;22.70;99.90;;;;;;4993268;28;20271;-87
2021/09/18 10:25:16;;;;;;;6.20;5.60;;;22.60;99.90;;;;;;4994520;28;20180;-88
2021/09/18 10:28:09;;;;;;;6.93;5.63;;;22.40;99.90;;;;;;4992971;28;20727;-87
2021/09/18 10:30:52;;;;;;;6.32;5.57;;;22.40;99.90;;;;;;4994384;28;20193;-88
2021/09/18 10:33:31;;;;;;;6.18;4.65;;;22.50;99.90;;;;;;4993313;28;20217;-88
2021/09/18 10:36:01;;;;;;;6.10;5.50;;;22.60;99.90;;;;;;4995440;28;20172;-88
2021/09/18 10:38:33;;;;;;;7.13;5.32;;;22.70;99.90;;;;;;4995193;28;20157;-89
2021/09/18 10:41:04;;;;;;;5.95;5.45;;;22.80;99.90;;;;;;4997410;28;20250;-89
2021/09/18 10:43:40;;;;;;;5.20;4.70;;;22.80;99.90;;;;;;4995051;28;20160;-89
2021/09/18 10:46:08;;;;;;;5.70;5.20;;;22.90;99.90;;;;;;4995164;28;20199;-88
2021/09/18 10:48:40;;;;;;;6.47;4.65;;;22.90;99.90;;;;;;4996269;28;20169;-88
2021/09/18 10:51:07;;;;;;;5.97;5.22;;;23.00;99.90;;;;;;4996443;28;20255;-87
2021/09/18 10:54:04;;;;;;;6.30;5.40;;;22.90;99.90;;;;;;4998939;28;20201;-87
2021/09/18 10:57:03;;;;;;;5.70;5.18;;;22.90;99.90;;;;;;4998260;28;20177;-87
2021/09/18 10:59:45;;;;;;;7.20;5.15;;;23.10;99.90;;;;;;4999174;28;20200;-87
2021/09/18 11:02:29;;;;;;;6.22;5.35;;;23.00;99.90;;;;;;4995178;28;20201;-87
2021/09/18 11:04:59;;;;;;;4.85;4.45;;;23.10;99.90;;;;;;4995985;28;20184;-87
2021/09/18 11:07:40;;;;;;;6.85;4.55;;;23.10;99.90;;;;;;4994256;28;20200;-87
2021/09/18 11:10:29;;;;;;;6.88;4.55;;;23.10;99.90;;;;;;4995341;28;20277;-87
2021/09/18 11:13:07;;;;;;;9.43;4.68;;;23.10;99.90;;;;;;4956908;28;20256;-87
2021/09/18 11:15:43;;;;;;;5.00;4.55;;;23.00;99.90;;;;;;4993267;28;20180;-87
2021/09/18 11:18:38;;;;;;;5.38;4.88;;;23.00;99.90;;;;;;4993347;28;20177;-87
2021/09/18 11:21:10;;;;;;;5.95;5.35;;;22.60;99.90;;;;;;4995431;28;20208;-87
2021/09/18 11:24:00;;;;;;;5.25;4.75;;;22.70;99.90;;;;;;4997083;28;20274;-88
2021/09/18 11:26:39;;;;;;;4.97;4.05;;;22.90;99.90;;;;;;4997119;28;20169;-87
2021/09/18 11:29:17;;;;;;;14.00;6.82;;;23.00;99.90;;;;;;4996944;28;20188;-87
2021/09/18 11:32:04;;;;;;;5.60;5.10;;;23.00;99.90;;;;;;4996727;28;20269;-87
2021/09/18 11:34:51;;;;;;;7.43;5.35;;;23.00;99.90;;;;;;4997293;28;20184;-87
2021/09/18 11:37:24;;;;;;;6.75;6.05;;;22.90;99.90;;;;;;4996595;28;20170;-86
2021/09/18 11:39:55;;;;;;;6.30;5.20;;;22.80;99.90;;;;;;4998585;28;20180;-87
2021/09/18 11:42:35;;;;;;;6.10;5.30;;;22.80;99.90;;;;;;4996923;28;20181;-87
2021/09/18 11:45:08;;;;;;;6.03;5.18;;;22.80;99.90;;;;;;4997039;28;20227;-86
2021/09/18 11:47:37;;;;;;;5.03;4.63;;;22.70;99.90;;;;;;4998482;28;20176;-87
2021/09/18 11:50:33;;;;;;;5.93;5.43;;;22.90;99.90;;;;;;4997035;28;20173;-87
2021/09/18 11:53:05;;;;;;;4.78;4.35;;;23.00;99.90;;;;;;4989305;28;20212;-87
2021/09/18 11:55:47;;;;;;;4.80;4.43;;;23.20;99.90;;;;;;4997209;28;20177;-87
2021/09/18 11:58:28;;;;;;;5.70;5.20;;;23.10;99.90;;;;;;4997802;28;20240;-90
2021/09/18 12:01:05;;;;;;;6.28;5.60;;;23.00;99.90;;;;;;5006403;28;20193;-88
2021/09/18 12:03:34;;;;;;;6.65;5.65;;;23.00;99.90;;;;;;5016864;28;20288;-87
2021/09/18 12:06:05;;;;;;;6.50;4.95;;;22.90;99.90;;;;;;5017908;28;20171;-88
2021/09/18 12:08:33;;;;;;;6.25;5.75;;;22.80;99.90;;;;;;5019077;28;20165;-86
2021/09/18 12:11:19;;;;;;;8.02;5.78;;;22.80;99.90;;;;;;5011323;28;20552;-86
2021/09/18 12:13:47;;;;;;;6.38;5.80;;;22.90;99.90;;;;;;4999053;28;20203;-87
2021/09/18 12:16:17;;;;;;;6.68;5.78;;;22.90;99.90;;;;;;4996764;28;20196;-87
2021/09/18 12:18:45;;;;;;;6.35;5.75;;;22.90;99.90;;;;;;4995943;28;20176;-83
2021/09/18 12:21:20;;;;;;;7.03;6.32;;;22.80;99.90;;;;;;4995335;28;20228;-83
2021/09/18 12:24:22;;;;;;;5.85;5.05;;;22.70;99.90;;;;;;4995407;28;20176;-84
2021/09/18 12:26:48;;;;;;;9.30;6.85;;;22.80;99.90;;;;;;4994870;28;20177;-82
2021/09/18 12:29:16;;;;;;;8.65;6.03;;;22.90;99.90;;;;;;4996299;28;20176;-88
2021/09/18 12:31:44;;;;;;;6.53;5.93;;;22.80;99.90;;;;;;4994315;28;20181;-87
2021/09/18 12:34:13;;;;;;;8.98;7.93;;;22.80;99.90;;;;;;4996506;28;20170;-81
2021/09/18 12:36:38;;;;;;;8.70;6.20;;;23.00;99.90;;;;;;4995728;28;20205;-86
2021/09/18 12:39:06;;;;;;;7.43;6.72;;;23.00;99.90;;;;;;4995255;28;20204;-84
2021/09/18 12:41:34;;;;;;;8.48;5.18;;;22.90;99.90;;;;;;4995280;28;20192;-84
2021/09/18 12:44:03;;;;;;;7.43;5.40;;;23.00;99.90;;;;;;4995283;28;20219;-85